createdAt,value
2022-12-11T00:00:21.623Z,0.10
2022-12-11T00:02:48.260Z,0.00
2022-12-11T00:05:14.996Z,0.00
2022-12-11T00:07:41.690Z,0.00
2022-12-11T00:10:08.579Z,0.00
2022-12-11T00:12:35.230Z,0.00
2022-12-11T00:15:01.862Z,0.00
2022-12-11T00:17:28.616Z,0.10
2022-12-11T00:19:55.626Z,0.00
2022-12-11T00:22:22.497Z,-0.10
2022-12-11T00:24:49.103Z,-0.10
2022-12-11T00:27:15.836Z,0.00
2022-12-11T00:29:42.662Z,-0.10
2022-12-11T00:32:09.483Z,-0.10
2022-12-11T00:34:36.215Z,0.00
2022-12-11T00:37:03.026Z,0.00
2022-12-11T00:39:29.651Z,0.00
2022-12-11T00:41:56.307Z,0.00
2022-12-11T00:44:22.966Z,0.00
2022-12-11T00:46:49.611Z,0.00
2022-12-11T00:49:16.296Z,0.00
2022-12-11T00:51:43.146Z,0.00
2022-12-11T00:54:09.792Z,0.00
2022-12-11T00:56:36.511Z,0.00
2022-12-11T00:59:03.178Z,0.00
2022-12-11T01:01:29.852Z,0.00
2022-12-11T01:03:56.567Z,0.00
2022-12-11T01:06:24.002Z,-0.10
2022-12-11T01:09:14.069Z,0.00
2022-12-11T01:11:41.556Z,0.00
2022-12-11T01:14:08.962Z,0.00
2022-12-11T01:16:36.024Z,0.00
2022-12-11T01:19:03.340Z,0.10
2022-12-11T01:21:29.977Z,0.00
2022-12-11T01:23:56.668Z,0.00
2022-12-11T01:26:23.585Z,0.00
2022-12-11T01:28:50.831Z,0.00
2022-12-11T01:31:18.162Z,0.00
2022-12-11T01:33:45.057Z,0.10
2022-12-11T01:36:16.784Z,0.00
2022-12-11T01:38:44.487Z,0.00
2022-12-11T01:41:11.225Z,0.10
2022-12-11T01:43:56.420Z,0.00
2022-12-11T01:46:23.279Z,-0.10
2022-12-11T01:48:49.932Z,-0.10
2022-12-11T01:51:17.019Z,-0.10
2022-12-11T01:53:45.944Z,0.00
2022-12-11T01:56:13.120Z,0.00
2022-12-11T01:58:45.523Z,0.00
2022-12-11T02:01:18.048Z,-0.10
2022-12-11T02:03:44.759Z,-0.10
2022-12-11T02:06:50.620Z,-0.20
2022-12-11T02:09:22.274Z,-0.20
2022-12-11T02:12:04.245Z,-0.10
2022-12-11T02:14:30.864Z,-0.10
2022-12-11T02:17:01.047Z,-0.30
2022-12-11T02:19:30.755Z,-0.20
2022-12-11T02:21:58.879Z,-0.20
2022-12-11T02:24:52.629Z,-0.10
2022-12-11T02:27:28.218Z,-0.20
2022-12-11T02:30:08.787Z,-0.20
2022-12-11T02:32:39.467Z,-0.20
2022-12-11T02:35:18.937Z,-0.30
2022-12-11T02:37:46.923Z,-0.30
2022-12-11T02:40:15.352Z,-0.30
2022-12-11T02:42:42.934Z,-0.30
2022-12-11T02:45:10.356Z,-0.20
2022-12-11T02:47:37.909Z,-0.40
2022-12-11T02:50:07.723Z,-0.30
2022-12-11T02:52:34.847Z,-0.20
2022-12-11T02:55:03.045Z,-0.20
2022-12-11T02:57:42.223Z,-0.20
2022-12-11T03:00:09.254Z,-0.20
2022-12-11T03:02:36.589Z,-0.20
2022-12-11T03:05:03.541Z,-0.10
2022-12-11T03:07:32.867Z,-0.20
2022-12-11T03:09:59.879Z,-0.20
2022-12-11T03:12:31.355Z,-0.10
2022-12-11T03:15:00.702Z,-0.20
2022-12-11T03:17:32.234Z,-0.20
2022-12-11T03:20:08.121Z,-0.20
2022-12-11T03:22:34.809Z,-0.10
2022-12-11T03:25:04.501Z,-0.20
2022-12-11T03:27:37.025Z,-0.20
2022-12-11T03:30:03.973Z,-0.20
2022-12-11T03:32:33.640Z,-0.20
2022-12-11T03:35:04.005Z,-0.10
2022-12-11T03:37:32.888Z,-0.20
2022-12-11T03:40:02.352Z,-0.20
2022-12-11T03:42:29.332Z,-0.30
2022-12-11T03:44:57.004Z,-0.30
2022-12-11T03:47:25.334Z,-0.30
2022-12-11T03:49:52.521Z,-0.30
2022-12-11T03:52:19.659Z,-0.20
2022-12-11T03:54:48.990Z,-0.30
2022-12-11T03:57:16.858Z,-0.30
2022-12-11T03:59:44.354Z,-0.30
2022-12-11T04:02:11.137Z,-0.30
2022-12-11T04:04:38.658Z,-0.30
2022-12-11T04:07:05.403Z,-0.40
2022-12-11T04:09:32.104Z,-0.40
2022-12-11T04:11:58.739Z,-0.50
2022-12-11T04:14:44.108Z,-0.50
2022-12-11T04:17:11.063Z,-0.50
2022-12-11T04:19:56.381Z,-0.50
2022-12-11T04:22:41.501Z,-0.50
2022-12-11T04:25:08.506Z,-0.50
2022-12-11T04:27:50.534Z,-0.50
2022-12-11T04:30:21.369Z,-0.60
2022-12-11T04:32:48.032Z,-0.60
2022-12-11T04:35:17.321Z,-0.60
2022-12-11T04:37:44.022Z,-0.60
2022-12-11T04:40:12.293Z,-0.60
2022-12-11T04:42:39.215Z,-0.60
2022-12-11T04:45:06.157Z,-0.60
2022-12-11T04:47:32.868Z,-0.60
2022-12-11T04:49:59.536Z,-0.60
2022-12-11T04:52:26.175Z,-0.70
2022-12-11T04:54:52.918Z,-0.60
2022-12-11T04:57:21.565Z,-0.80
2022-12-11T04:59:48.402Z,-0.90
2022-12-11T05:02:15.763Z,-0.80
2022-12-11T05:04:42.777Z,-0.70
2022-12-11T05:07:11.808Z,-0.70
2022-12-11T05:09:39.079Z,-0.80
2022-12-11T05:12:06.627Z,-0.80
2022-12-11T05:14:33.480Z,-0.80
2022-12-11T05:17:00.284Z,-0.80
2022-12-11T05:19:27.159Z,-0.80
2022-12-11T05:21:54.048Z,-0.80
2022-12-11T05:24:20.720Z,-0.80
2022-12-11T05:26:47.335Z,-0.80
2022-12-11T05:29:14.044Z,-0.70
2022-12-11T05:31:40.895Z,-0.70
2022-12-11T05:34:07.664Z,-0.70
2022-12-11T05:36:34.662Z,-0.80
2022-12-11T05:39:01.887Z,-0.70
2022-12-11T05:41:29.933Z,-0.70
2022-12-11T05:43:56.685Z,-0.80
2022-12-11T05:46:27.352Z,-0.80
2022-12-11T05:48:55.154Z,-0.70
2022-12-11T05:51:21.855Z,-0.70
2022-12-11T05:53:49.575Z,-0.80
2022-12-11T05:56:17.458Z,-0.70
2022-12-11T05:58:44.653Z,-0.70
2022-12-11T06:01:21.667Z,-0.70
2022-12-11T06:03:48.669Z,-0.70
2022-12-11T06:06:15.558Z,-0.90
2022-12-11T06:08:42.409Z,-0.90
2022-12-11T06:11:09.400Z,-1.00
2022-12-11T06:13:36.046Z,-1.00
2022-12-11T06:16:03.828Z,-0.90
2022-12-11T06:18:30.824Z,-0.90
2022-12-11T06:20:58.003Z,-1.00
2022-12-11T06:23:24.644Z,-1.00
2022-12-11T06:25:52.125Z,-1.10
2022-12-11T06:28:18.914Z,-1.20
2022-12-11T06:30:45.986Z,-1.40
2022-12-11T06:33:13.525Z,-1.50
2022-12-11T06:35:42.236Z,-1.70
2022-12-11T06:38:10.571Z,-1.80
2022-12-11T06:40:37.418Z,-1.70
2022-12-11T06:43:04.734Z,-1.70
2022-12-11T06:45:31.615Z,-1.80
2022-12-11T06:47:58.504Z,-1.80
2022-12-11T06:50:25.141Z,-1.80
2022-12-11T06:52:51.793Z,-1.90
2022-12-11T06:55:18.594Z,-1.90
2022-12-11T06:57:45.216Z,-2.00
2022-12-11T07:00:12.744Z,-2.10
2022-12-11T07:02:42.013Z,-2.20
2022-12-11T07:05:09.388Z,-2.10
2022-12-11T07:07:36.468Z,-2.10
2022-12-11T07:10:08.063Z,-2.10
2022-12-11T07:12:35.844Z,-2.20
2022-12-11T07:15:02.670Z,-2.20
2022-12-11T07:17:29.551Z,-2.30
2022-12-11T07:19:56.381Z,-2.30
2022-12-11T07:22:23.150Z,-2.50
2022-12-11T07:24:49.898Z,-2.50
2022-12-11T07:27:16.720Z,-2.50
2022-12-11T07:29:43.419Z,-2.50
2022-12-11T07:32:10.647Z,-2.50
2022-12-11T07:34:37.559Z,-2.40
2022-12-11T07:37:04.226Z,-2.40
2022-12-11T07:39:30.970Z,-2.30
2022-12-11T07:41:57.623Z,-2.00
2022-12-11T07:44:24.429Z,-2.10
2022-12-11T07:46:51.084Z,-1.80
2022-12-11T07:49:17.753Z,-1.60
2022-12-11T07:51:44.699Z,-1.20
2022-12-11T07:54:16.350Z,-0.70
2022-12-11T07:56:44.087Z,-0.40
2022-12-11T07:59:10.966Z,-0.30
2022-12-11T08:01:38.439Z,-0.20
2022-12-11T08:04:06.702Z,-0.10
2022-12-11T08:06:34.728Z,0.10
2022-12-11T08:09:02.035Z,0.20
2022-12-11T08:11:29.497Z,0.40
2022-12-11T08:13:56.229Z,0.40
2022-12-11T08:16:22.989Z,0.20
2022-12-11T08:18:50.334Z,-0.20
2022-12-11T08:21:18.217Z,-0.40
2022-12-11T08:23:45.343Z,-0.40
2022-12-11T08:26:14.023Z,-0.40
2022-12-11T08:28:41.040Z,-0.20
2022-12-11T08:31:08.725Z,-0.30
2022-12-11T08:33:36.517Z,-0.30
2022-12-11T08:36:04.174Z,-0.30
2022-12-11T08:38:31.386Z,-0.30
2022-12-11T08:40:58.181Z,-0.20
2022-12-11T08:43:25.003Z,-0.30
2022-12-11T08:45:51.754Z,-0.40
2022-12-11T08:48:18.459Z,-0.50
2022-12-11T08:50:45.085Z,-0.50
2022-12-11T08:53:12.115Z,-0.40
2022-12-11T08:55:38.960Z,-0.40
2022-12-11T08:58:05.760Z,-0.40
2022-12-11T09:00:32.538Z,-0.10
2022-12-11T09:02:59.249Z,-0.40
2022-12-11T09:05:26.329Z,-0.30
2022-12-11T09:07:53.462Z,-0.20
2022-12-11T09:10:20.210Z,-0.40
2022-12-11T09:12:46.984Z,-0.40
2022-12-11T09:15:14.079Z,-0.20
2022-12-11T09:17:41.425Z,-0.10
2022-12-11T09:20:08.538Z,0.20
2022-12-11T09:22:35.497Z,0.40
2022-12-11T09:25:02.205Z,0.60
2022-12-11T09:27:29.774Z,0.60
2022-12-11T09:29:56.604Z,0.60
2022-12-11T09:32:23.257Z,0.60
2022-12-11T09:34:50.799Z,0.60
2022-12-11T09:37:17.559Z,0.70
2022-12-11T09:39:47.005Z,0.80
2022-12-11T09:42:34.014Z,0.70
2022-12-11T09:45:02.925Z,0.60
2022-12-11T09:47:59.138Z,0.50
2022-12-11T09:50:32.960Z,0.50
2022-12-11T09:53:02.849Z,0.30
2022-12-11T09:55:38.574Z,0.40
2022-12-11T09:58:20.955Z,0.40
2022-12-11T10:00:49.499Z,0.30
2022-12-11T10:03:34.578Z,0.20
2022-12-11T10:06:10.329Z,0.20
2022-12-11T10:08:37.261Z,0.10
2022-12-11T10:11:13.129Z,0.10
2022-12-11T10:13:43.434Z,0.10
2022-12-11T10:16:26.591Z,0.30
2022-12-11T10:18:53.665Z,0.40
2022-12-11T10:21:20.903Z,0.50
2022-12-11T10:23:56.197Z,0.50
2022-12-11T10:26:23.372Z,0.60
2022-12-11T10:28:50.466Z,0.70
2022-12-11T10:31:18.929Z,0.90
2022-12-11T10:33:59.349Z,0.90
2022-12-11T10:36:27.784Z,0.80
2022-12-11T10:38:54.901Z,1.30
2022-12-11T10:41:24.657Z,1.70
2022-12-11T10:43:52.085Z,1.80
2022-12-11T10:46:20.163Z,2.00
2022-12-11T10:48:53.383Z,2.00
2022-12-11T10:51:24.672Z,1.90
2022-12-11T10:53:57.182Z,1.90
2022-12-11T10:56:28.563Z,1.90
2022-12-11T10:58:55.978Z,1.70
2022-12-11T11:01:24.579Z,1.40
2022-12-11T11:03:56.816Z,1.40
2022-12-11T11:06:23.919Z,1.40
2022-12-11T11:08:52.191Z,1.40
2022-12-11T11:11:24.810Z,1.30
2022-12-11T11:13:51.897Z,1.10
2022-12-11T11:16:20.271Z,1.10
2022-12-11T11:18:54.630Z,1.20
2022-12-11T11:21:23.973Z,1.40
2022-12-11T11:23:54.074Z,1.50
2022-12-11T11:26:22.690Z,1.50
2022-12-11T11:28:56.549Z,1.50
2022-12-11T11:31:31.386Z,1.50
2022-12-11T11:34:05.619Z,1.70
2022-12-11T11:36:33.740Z,1.90
2022-12-11T11:39:20.324Z,1.90
2022-12-11T11:41:52.447Z,2.30
2022-12-11T11:44:23.120Z,2.60
2022-12-11T11:46:54.900Z,2.70
2022-12-11T11:49:27.315Z,2.90
2022-12-11T11:52:17.151Z,3.00
2022-12-11T11:55:10.854Z,2.80
2022-12-11T11:57:37.728Z,2.50
2022-12-11T12:00:33.909Z,2.60
2022-12-11T12:03:03.753Z,2.80
2022-12-11T12:05:35.187Z,2.70
2022-12-11T12:08:12.872Z,2.60
2022-12-11T12:10:48.050Z,2.40
2022-12-11T12:13:48.726Z,2.20
2022-12-11T12:16:51.129Z,2.20
2022-12-11T12:19:08.836Z,2.30
2022-12-11T12:21:42.307Z,2.30
2022-12-11T12:24:25.055Z,2.10
2022-12-11T12:26:54.910Z,2.20
2022-12-11T12:29:24.607Z,2.20
2022-12-11T12:31:57.677Z,2.00
2022-12-11T12:34:24.641Z,2.10
2022-12-11T12:37:13.268Z,1.90
2022-12-11T12:39:52.492Z,1.80
2022-12-11T12:42:38.208Z,1.90
2022-12-11T12:45:08.814Z,1.80
2022-12-11T12:47:36.404Z,2.10
2022-12-11T12:50:03.886Z,2.30
2022-12-11T12:52:38.747Z,2.30
2022-12-11T12:55:18.901Z,2.40
2022-12-11T12:58:06.123Z,2.40
2022-12-11T13:00:43.203Z,2.30
2022-12-11T13:03:17.180Z,2.70
2022-12-11T13:05:45.797Z,3.00
2022-12-11T13:08:13.281Z,2.80
2022-12-11T13:10:41.978Z,2.90
2022-12-11T13:13:31.961Z,3.00
2022-12-11T13:16:22.545Z,2.90
2022-12-11T13:18:49.457Z,2.60
2022-12-11T13:21:31.247Z,2.60
2022-12-11T13:24:13.005Z,2.60
2022-12-11T13:26:40.363Z,2.70
2022-12-11T13:29:27.269Z,2.70
2022-12-11T13:32:20.063Z,2.70
2022-12-11T13:34:58.162Z,2.40
2022-12-11T13:37:35.973Z,2.20
2022-12-11T13:40:04.185Z,2.20
2022-12-11T13:42:41.256Z,2.00
2022-12-11T13:45:17.960Z,1.90
2022-12-11T13:47:46.275Z,1.80
2022-12-11T13:50:15.693Z,1.80
2022-12-11T13:52:52.812Z,1.60
2022-12-11T13:55:25.052Z,1.50
2022-12-11T13:57:52.581Z,1.50
2022-12-11T14:00:24.247Z,1.40
2022-12-11T14:02:52.084Z,1.30
2022-12-11T14:05:19.878Z,1.30
2022-12-11T14:07:51.044Z,1.30
2022-12-11T14:10:22.158Z,1.20
2022-12-11T14:12:54.673Z,1.10
2022-12-11T14:15:21.843Z,1.10
2022-12-11T14:17:51.966Z,1.00
2022-12-11T14:20:20.365Z,0.90
2022-12-11T14:22:48.531Z,0.90
2022-12-11T14:25:21.128Z,1.00
2022-12-11T14:27:49.343Z,0.90
2022-12-11T14:30:23.444Z,0.90
2022-12-11T14:33:01.673Z,0.90
2022-12-11T14:35:38.458Z,0.80
2022-12-11T14:38:14.116Z,0.80
2022-12-11T14:40:43.672Z,0.70
2022-12-11T14:43:24.083Z,0.50
2022-12-11T14:45:54.679Z,0.40
2022-12-11T14:48:28.256Z,0.40
2022-12-11T14:50:57.779Z,0.30
2022-12-11T14:53:28.382Z,0.40
2022-12-11T14:55:56.533Z,0.30
2022-12-11T14:58:24.875Z,0.30
2022-12-11T15:00:57.677Z,0.30
2022-12-11T15:03:24.862Z,0.10
2022-12-11T15:05:55.336Z,0.10
2022-12-11T15:08:26.679Z,0.00
2022-12-11T15:11:00.466Z,-0.10
2022-12-11T15:13:27.312Z,-0.10
2022-12-11T15:15:55.005Z,-0.20
2022-12-11T15:18:23.555Z,-0.30
2022-12-11T15:20:51.870Z,-0.30
2022-12-11T15:23:18.859Z,-0.40
2022-12-11T15:25:56.042Z,-0.50
2022-12-11T15:28:26.915Z,-0.60
2022-12-11T15:30:58.509Z,-0.60
2022-12-11T15:33:28.470Z,-0.70
2022-12-11T15:36:04.360Z,-0.70
2022-12-11T15:38:31.097Z,-0.80
2022-12-11T15:40:57.928Z,-0.80
2022-12-11T15:43:24.703Z,-0.90
2022-12-11T15:45:51.651Z,-0.90
2022-12-11T15:48:18.458Z,-0.80
2022-12-11T15:50:45.227Z,-0.80
2022-12-11T15:53:12.150Z,-0.70
2022-12-11T15:55:39.343Z,-0.70
2022-12-11T15:58:07.976Z,-0.70
2022-12-11T16:00:34.795Z,-0.70
2022-12-11T16:03:01.499Z,-0.70
2022-12-11T16:05:28.201Z,-0.60
2022-12-11T16:07:59.233Z,-0.70
2022-12-11T16:10:26.663Z,-0.70
2022-12-11T16:12:53.472Z,-0.70
2022-12-11T16:15:24.149Z,-0.70
2022-12-11T16:17:58.605Z,-0.70
2022-12-11T16:20:25.293Z,-0.80
2022-12-11T16:22:51.976Z,-0.80
2022-12-11T16:25:18.580Z,-0.90
2022-12-11T16:27:45.289Z,-1.00
2022-12-11T16:30:12.964Z,-1.00
2022-12-11T16:32:39.714Z,-1.10
2022-12-11T16:35:06.545Z,-1.20
2022-12-11T16:37:33.214Z,-1.20
2022-12-11T16:40:00.201Z,-1.30
2022-12-11T16:42:27.358Z,-1.30
2022-12-11T16:44:54.075Z,-1.30
2022-12-11T16:47:20.807Z,-1.40
2022-12-11T16:49:47.521Z,-1.50
2022-12-11T16:52:18.956Z,-1.50
2022-12-11T16:54:48.581Z,-1.50
2022-12-11T16:57:15.554Z,-1.50
2022-12-11T16:59:43.365Z,-1.60
2022-12-11T17:02:10.753Z,-1.60
2022-12-11T17:04:38.230Z,-1.60
2022-12-11T17:07:05.016Z,-1.60
2022-12-11T17:09:31.872Z,-1.60
2022-12-11T17:11:58.888Z,-1.50
2022-12-11T17:14:25.588Z,-1.50
2022-12-11T17:16:52.264Z,-1.50
2022-12-11T17:19:19.714Z,-1.50
2022-12-11T17:21:51.617Z,-1.40
2022-12-11T17:24:18.516Z,-1.50
2022-12-11T17:26:45.188Z,-1.40
2022-12-11T17:29:12.459Z,-1.40
2022-12-11T17:31:39.282Z,-1.40
2022-12-11T17:34:06.250Z,-1.40
2022-12-11T17:36:33.252Z,-1.30
2022-12-11T17:39:00.056Z,-1.30
2022-12-11T17:41:26.756Z,-1.30
2022-12-11T17:43:55.592Z,-1.30
2022-12-11T17:46:22.411Z,-1.40
2022-12-11T17:48:49.319Z,-1.60
2022-12-11T17:51:21.861Z,-1.50
2022-12-11T17:53:48.500Z,-1.50
2022-12-11T17:56:15.288Z,-1.60
2022-12-11T17:58:42.037Z,-1.60
2022-12-11T18:01:10.199Z,-1.60
2022-12-11T18:03:37.159Z,-1.60
2022-12-11T18:06:05.112Z,-1.60
2022-12-11T18:08:31.945Z,-1.60
2022-12-11T18:11:04.516Z,-1.50
2022-12-11T18:13:31.271Z,-1.50
2022-12-11T18:16:01.912Z,-1.50
2022-12-11T18:18:28.636Z,-1.50
2022-12-11T18:20:55.291Z,-1.50
2022-12-11T18:23:21.960Z,-1.60
2022-12-11T18:25:48.625Z,-1.60
2022-12-11T18:28:15.362Z,-1.70
2022-12-11T18:30:42.033Z,-1.70
2022-12-11T18:33:08.714Z,-1.70
2022-12-11T18:35:35.434Z,-1.80
2022-12-11T18:38:04.507Z,-1.80
2022-12-11T18:40:31.248Z,-1.80
2022-12-11T18:42:58.135Z,-1.70
2022-12-11T18:45:24.778Z,-1.70
2022-12-11T18:47:51.951Z,-1.70
2022-12-11T18:50:19.396Z,-1.60
2022-12-11T18:52:45.993Z,-1.50
2022-12-11T18:55:12.969Z,-1.50
2022-12-11T18:57:39.800Z,-1.50
2022-12-11T19:00:07.516Z,-1.40
2022-12-11T19:02:34.775Z,-1.40
2022-12-11T19:05:01.737Z,-1.40
2022-12-11T19:07:28.569Z,-1.30
2022-12-11T19:09:55.373Z,-1.30
2022-12-11T19:12:22.248Z,-1.30
2022-12-11T19:14:48.972Z,-1.30
2022-12-11T19:17:15.680Z,-1.30
2022-12-11T19:19:44.301Z,-1.30
2022-12-11T19:22:10.998Z,-1.40
2022-12-11T19:24:37.775Z,-1.50
2022-12-11T19:27:08.579Z,-1.60
2022-12-11T19:29:38.481Z,-1.70
2022-12-11T19:32:05.437Z,-1.80
2022-12-11T19:34:32.209Z,-1.80
2022-12-11T19:36:59.067Z,-1.90
2022-12-11T19:39:26.000Z,-2.00
2022-12-11T19:41:52.652Z,-2.00
2022-12-11T19:44:19.419Z,-2.00
2022-12-11T19:46:46.231Z,-2.10
2022-12-11T19:49:13.077Z,-2.10
2022-12-11T19:51:40.741Z,-2.10
2022-12-11T19:54:08.836Z,-2.20
2022-12-11T19:56:35.856Z,-2.20
2022-12-11T19:59:06.448Z,-2.30
2022-12-11T20:01:33.970Z,-2.30
2022-12-11T20:04:02.282Z,-2.30
2022-12-11T20:06:30.136Z,-2.30
2022-12-11T20:08:57.254Z,-2.30
2022-12-11T20:11:24.465Z,-2.30
2022-12-11T20:13:52.950Z,-2.20
2022-12-11T20:16:28.920Z,-2.20
2022-12-11T20:19:07.116Z,-2.10
2022-12-11T20:21:33.842Z,-2.10
2022-12-11T20:24:00.564Z,-2.10
2022-12-11T20:26:27.588Z,-2.10
2022-12-11T20:28:54.919Z,-2.10
2022-12-11T20:31:23.529Z,-2.10
2022-12-11T20:33:50.803Z,-2.10
2022-12-11T20:36:18.991Z,-2.20
2022-12-11T20:38:46.150Z,-2.20
2022-12-11T20:41:14.304Z,-2.20
2022-12-11T20:43:41.243Z,-2.20
2022-12-11T20:46:08.538Z,-2.20
2022-12-11T20:48:35.739Z,-2.20
2022-12-11T20:51:04.362Z,-2.20
2022-12-11T20:53:31.279Z,-2.20
2022-12-11T20:55:58.040Z,-2.20
2022-12-11T20:58:24.659Z,-2.20
2022-12-11T21:00:51.925Z,-2.10
2022-12-11T21:03:18.611Z,-2.10
2022-12-11T21:05:45.687Z,-2.10
2022-12-11T21:08:13.237Z,-2.00
2022-12-11T21:10:43.645Z,-1.90
2022-12-11T21:13:10.643Z,-1.90
2022-12-11T21:15:38.148Z,-1.90
2022-12-11T21:18:05.235Z,-2.00
2022-12-11T21:20:32.339Z,-1.90
2022-12-11T21:22:59.041Z,-1.80
2022-12-11T21:25:25.771Z,-1.80
2022-12-11T21:27:52.534Z,-1.80
2022-12-11T21:30:19.246Z,-1.80
2022-12-11T21:32:46.218Z,-1.80
2022-12-11T21:35:13.283Z,-1.80
2022-12-11T21:37:41.891Z,-1.70
2022-12-11T21:40:09.377Z,-1.60
2022-12-11T21:42:36.174Z,-1.50
2022-12-11T21:47:50.395Z,-1.40
2022-12-11T21:50:17.398Z,-1.40
2022-12-11T21:52:44.274Z,-1.40
2022-12-11T21:55:12.359Z,-1.40
2022-12-11T21:57:39.289Z,-1.30
2022-12-11T22:00:06.411Z,-1.20
2022-12-11T22:02:37.434Z,-1.20
2022-12-11T22:05:07.583Z,-1.20
2022-12-11T22:07:34.364Z,-1.10
2022-12-11T22:10:01.170Z,-1.10
2022-12-11T22:12:28.227Z,-1.10
2022-12-11T22:14:54.965Z,-1.10
2022-12-11T22:17:21.976Z,-1.10
2022-12-11T22:19:48.683Z,-1.00
2022-12-11T22:22:15.550Z,-1.00
2022-12-11T22:24:42.182Z,-1.00
2022-12-11T22:27:08.981Z,-1.00
2022-12-11T22:29:35.610Z,-1.00
2022-12-11T22:32:02.306Z,-1.00
2022-12-11T22:34:29.022Z,-1.00
2022-12-11T22:36:56.262Z,-1.10
2022-12-11T22:39:24.479Z,-1.00
2022-12-11T22:41:51.379Z,-1.10
2022-12-11T22:44:19.388Z,-1.10
2022-12-11T22:46:49.901Z,-1.10
2022-12-11T22:49:17.087Z,-1.10
2022-12-11T22:51:43.982Z,-1.10
2022-12-11T22:54:10.713Z,-1.10
2022-12-11T22:56:37.437Z,-1.10
2022-12-11T22:59:04.199Z,-1.10
2022-12-11T23:01:30.953Z,-1.10
2022-12-11T23:03:57.724Z,-1.10
2022-12-11T23:06:25.014Z,-1.10
2022-12-11T23:08:52.454Z,-1.20
2022-12-11T23:11:19.083Z,-1.20
2022-12-11T23:13:45.878Z,-1.20
2022-12-11T23:16:13.234Z,-1.20
2022-12-11T23:18:40.197Z,-1.20
2022-12-11T23:21:07.640Z,-1.20
2022-12-11T23:23:34.378Z,-1.10
2022-12-11T23:26:01.485Z,-1.10
2022-12-11T23:28:28.280Z,-1.10
2022-12-11T23:30:55.120Z,-1.10
2022-12-11T23:33:21.856Z,-1.10
2022-12-11T23:35:48.560Z,-1.20
2022-12-11T23:38:16.089Z,-1.20
2022-12-11T23:40:42.737Z,-0.90
2022-12-11T23:43:09.482Z,-1.10
2022-12-11T23:45:36.171Z,-1.20
2022-12-11T23:48:02.904Z,-1.00
2022-12-11T23:50:31.254Z,-1.00
2022-12-11T23:52:57.872Z,-1.00
2022-12-11T23:55:25.428Z,-1.00
2022-12-11T23:57:52.121Z,-1.00
